Ramona, OK

7:56 PM CDT on September 16, 2014 (GMT -0500)
Tulsa International | Change Station
CLOSE
Current Station
Airport
Location: Tulsa,
Elevation: 676 ft
Nearby Weather Stations
4.0 Earthquake: Guthrie, Oklahoma (1 day ago)  

Elev 676 ft 36.20 °N, 95.89 °W | Updated 1 hour ago

Partly Cloudy
Partly Cloudy
76 °F
Feels Like 76 °F
N
5
Wind Variable Wind from ENE

Today
High -- | Low -- °F
--% Chance of Precip.
Yesterday
High -- | Low -- °F
Precip. -- in
7:06 AM 7:29 PM
Last Quarter, 41% visible
Pressure 29.99 in
Visibility 10.0 miles
Clouds Clear
Dew Point 65 °F
Humidity 69%
Rainfall 0.00 in
Snow Depth Not available.
UV 0 out of 12
Pollen 9.30 out of 12
Air Quality Not available.
Flu Activity Not available.
METAR KTUL 162353Z 07004KT 10SM CLR 24/18 A3001 RMK AO2 SLP155 T02440183 10256 20217 56020

More Conditions Fewer Conditions

Pressure 29.99 in
Visibility 10.0 miles
Clouds Clear
Dew Point 65 °F
Humidity 69%
Rainfall 0.00 in
Snow Depth Not available.
UV 0 out of 12
Pollen 9.30 out of 12
Air Quality Not available.
Flu Activity Not available.
METAR KTUL 162353Z 07004KT 10SM CLR 24/18 A3001 RMK AO2 SLP155 T02440183 10256 20217 56020

More Conditions Fewer Conditions

Nowcast | as of 7:07 PM CDT on September 16, 2014

At 7:07 PM...National Weather Service Doppler radars detected rapidly weakening light showers over portions of Franklin County in west-central Arkansas. Brief light rain showers or occasional sprinkles may affect southern sections of the County before this activity completely dissipates...otherwise no measurable rainfall is expected. With no additional activity occurring elsewhere... this will be the final short term forecast issued for this event.

×

10-Day Weather Forecast

Almanac

Astronomy

Sep. 16, 2014 Rise Set
Actual Time 7:06 AM CDT 7:29 PM CDT
Civil Twilight 6:40 AM CDT 7:55 PM CDT
Nautical Twilight 6:10 AM CDT 8:25 PM CDT
Astronomical Twilight 5:39 AM CDT 8:56 PM CDT
Moon 12:24 AM CDT (9/16) 2:47 PM CDT (9/16)
Length of Visible Light 13h 14m
Length of Day
12h 22m
Tomorrow will be 2m 18s shorter.
Last Quarter, 41% of the Moon is Illuminated
Today
Last Quarter
Sep 24
New
Oct 1
First Quarter
Oct 8
Full
Oct 15
Last Quarter

Today's Extremes

State Highs State Lows

Community

WunderPhotos

Upload Photos

1,753,935 photos uploaded!

Nearby

Snow Depth

Station Depth Elevation
No new snow has been reported.

Earthquake Activity

City Distance Mag. Time & Date
Medford, Oklahoma 101 miles 3.3 5:35 PM CDT
2014-09-16
Yale, Oklahoma 57 miles 2.5 9:31 AM CDT
2014-09-16
Yale, Oklahoma 57 miles 2.8 8:49 AM CDT
2014-09-16
Stillwater, Oklahoma 61 miles 2.5 8:38 AM CDT
2014-09-16
Minimum magnitude displayed is 2.5.

Coastal Water Temperatures

Place Temperature
No Stations Reporting

Nearby Weather Stations